sensor_id;sensor_type;location;lat;lon;timestamp;P1;durP1;ratioP1;P2;durP2;ratioP2
25409;SDS011;13339;50.840;4.346;2023-05-15T00:02:15;91.30;;;52.27;;
25409;SDS011;13339;50.840;4.346;2023-05-15T00:04:41;94.07;;;51.70;;
25409;SDS011;13339;50.840;4.346;2023-05-15T00:07:06;91.83;;;49.90;;
25409;SDS011;13339;50.840;4.346;2023-05-15T00:09:32;81.33;;;48.50;;
25409;SDS011;13339;50.840;4.346;2023-05-15T00:11:58;87.10;;;47.40;;
25409;SDS011;13339;50.840;4.346;2023-05-15T00:14:24;86.57;;;49.77;;
25409;SDS011;13339;50.840;4.346;2023-05-15T00:16:50;80.20;;;47.80;;
25409;SDS011;13339;50.840;4.346;2023-05-15T00:19:15;89.73;;;51.00;;
25409;SDS011;13339;50.840;4.346;2023-05-15T00:21:41;96.53;;;50.73;;
25409;SDS011;13339;50.840;4.346;2023-05-15T00:24:07;91.20;;;49.60;;
25409;SDS011;13339;50.840;4.346;2023-05-15T00:26:32;89.30;;;49.27;;
25409;SDS011;13339;50.840;4.346;2023-05-15T00:28:58;91.50;;;52.27;;
25409;SDS011;13339;50.840;4.346;2023-05-15T00:31:24;88.33;;;49.80;;
25409;SDS011;13339;50.840;4.346;2023-05-15T00:33:49;89.63;;;51.57;;
25409;SDS011;13339;50.840;4.346;2023-05-15T00:36:15;91.13;;;50.97;;
25409;SDS011;13339;50.840;4.346;2023-05-15T00:38:41;90.93;;;51.63;;
25409;SDS011;13339;50.840;4.346;2023-05-15T00:41:07;91.83;;;50.60;;
25409;SDS011;13339;50.840;4.346;2023-05-15T00:43:35;84.90;;;49.50;;
25409;SDS011;13339;50.840;4.346;2023-05-15T00:46:02;87.63;;;48.83;;
25409;SDS011;13339;50.840;4.346;2023-05-15T00:48:28;85.70;;;47.77;;
25409;SDS011;13339;50.840;4.346;2023-05-15T00:50:56;84.37;;;46.13;;
25409;SDS011;13339;50.840;4.346;2023-05-15T00:53:23;84.10;;;47.20;;
25409;SDS011;13339;50.840;4.346;2023-05-15T00:55:49;78.53;;;46.37;;
25409;SDS011;13339;50.840;4.346;2023-05-15T00:58:16;81.27;;;46.10;;
25409;SDS011;13339;50.840;4.346;2023-05-15T01:00:42;89.47;;;50.53;;
25409;SDS011;13339;50.840;4.346;2023-05-15T01:03:09;78.37;;;47.47;;
25409;SDS011;13339;50.840;4.346;2023-05-15T01:05:35;74.67;;;46.27;;
25409;SDS011;13339;50.840;4.346;2023-05-15T01:10:59;67.40;;;41.47;;
25409;SDS011;13339;50.840;4.346;2023-05-15T01:13:28;68.93;;;42.53;;
25409;SDS011;13339;50.840;4.346;2023-05-15T01:15:53;75.10;;;43.40;;
25409;SDS011;13339;50.840;4.346;2023-05-15T01:18:19;77.20;;;42.37;;
25409;SDS011;13339;50.840;4.346;2023-05-15T01:28:55;72.50;;;41.43;;
25409;SDS011;13339;50.840;4.346;2023-05-15T01:31:25;70.13;;;42.70;;
25409;SDS011;13339;50.840;4.346;2023-05-15T01:33:55;72.10;;;42.93;;
25409;SDS011;13339;50.840;4.346;2023-05-15T01:36:26;72.27;;;41.90;;
25409;SDS011;13339;50.840;4.346;2023-05-15T01:39:00;72.10;;;42.87;;
25409;SDS011;13339;50.840;4.346;2023-05-15T01:41:28;71.47;;;41.93;;
25409;SDS011;13339;50.840;4.346;2023-05-15T01:44:17;67.27;;;41.53;;
25409;SDS011;13339;50.840;4.346;2023-05-15T01:46:48;74.57;;;43.33;;
25409;SDS011;13339;50.840;4.346;2023-05-15T01:49:16;72.77;;;44.57;;
25409;SDS011;13339;50.840;4.346;2023-05-15T01:51:43;74.63;;;44.43;;
25409;SDS011;13339;50.840;4.346;2023-05-15T01:54:12;71.40;;;43.53;;
25409;SDS011;13339;50.840;4.346;2023-05-15T01:56:39;72.77;;;42.77;;
25409;SDS011;13339;50.840;4.346;2023-05-15T01:59:09;68.40;;;42.20;;
25409;SDS011;13339;50.840;4.346;2023-05-15T02:01:37;72.60;;;45.17;;
25409;SDS011;13339;50.840;4.346;2023-05-15T02:04:03;73.60;;;45.17;;
25409;SDS011;13339;50.840;4.346;2023-05-15T02:06:29;69.53;;;44.53;;
25409;SDS011;13339;50.840;4.346;2023-05-15T02:08:56;75.10;;;45.80;;
25409;SDS011;13339;50.840;4.346;2023-05-15T02:11:22;72.40;;;45.23;;
25409;SDS011;13339;50.840;4.346;2023-05-15T02:13:48;73.23;;;45.73;;
25409;SDS011;13339;50.840;4.346;2023-05-15T02:16:15;69.73;;;45.33;;
25409;SDS011;13339;50.840;4.346;2023-05-15T02:18:41;68.90;;;44.73;;
25409;SDS011;13339;50.840;4.346;2023-05-15T02:21:07;71.23;;;46.03;;
25409;SDS011;13339;50.840;4.346;2023-05-15T02:23:32;72.00;;;44.70;;
25409;SDS011;13339;50.840;4.346;2023-05-15T02:29:06;75.93;;;44.67;;
25409;SDS011;13339;50.840;4.346;2023-05-15T02:34:44;69.73;;;43.17;;
25409;SDS011;13339;50.840;4.346;2023-05-15T02:37:34;68.80;;;44.93;;
25409;SDS011;13339;50.840;4.346;2023-05-15T02:40:03;76.37;;;45.40;;
25409;SDS011;13339;50.840;4.346;2023-05-15T02:42:35;69.90;;;44.20;;
25409;SDS011;13339;50.840;4.346;2023-05-15T02:45:01;68.00;;;43.53;;
25409;SDS011;13339;50.840;4.346;2023-05-15T02:47:28;72.03;;;45.27;;
25409;SDS011;13339;50.840;4.346;2023-05-15T02:49:54;74.23;;;46.03;;
25409;SDS011;13339;50.840;4.346;2023-05-15T02:52:22;75.60;;;47.27;;
25409;SDS011;13339;50.840;4.346;2023-05-15T02:54:48;73.43;;;46.23;;
25409;SDS011;13339;50.840;4.346;2023-05-15T02:57:13;80.27;;;46.27;;
25409;SDS011;13339;50.840;4.346;2023-05-15T02:59:39;73.50;;;45.03;;
25409;SDS011;13339;50.840;4.346;2023-05-15T03:02:05;69.10;;;44.00;;
25409;SDS011;13339;50.840;4.346;2023-05-15T03:04:31;73.53;;;46.47;;
25409;SDS011;13339;50.840;4.346;2023-05-15T03:06:56;69.47;;;45.80;;
25409;SDS011;13339;50.840;4.346;2023-05-15T03:09:22;72.13;;;46.23;;
25409;SDS011;13339;50.840;4.346;2023-05-15T03:11:49;76.20;;;47.10;;
25409;SDS011;13339;50.840;4.346;2023-05-15T03:14:14;76.23;;;47.33;;
25409;SDS011;13339;50.840;4.346;2023-05-15T03:16:40;85.33;;;48.00;;
25409;SDS011;13339;50.840;4.346;2023-05-15T03:19:06;81.03;;;48.83;;
25409;SDS011;13339;50.840;4.346;2023-05-15T03:21:31;86.37;;;50.30;;
25409;SDS011;13339;50.840;4.346;2023-05-15T03:23:59;84.83;;;48.77;;
25409;SDS011;13339;50.840;4.346;2023-05-15T03:26:25;77.37;;;45.97;;
25409;SDS011;13339;50.840;4.346;2023-05-15T03:28:50;78.60;;;43.57;;
25409;SDS011;13339;50.840;4.346;2023-05-15T03:31:17;84.57;;;47.67;;
25409;SDS011;13339;50.840;4.346;2023-05-15T03:33:42;77.40;;;44.50;;
25409;SDS011;13339;50.840;4.346;2023-05-15T03:36:09;76.57;;;45.43;;
25409;SDS011;13339;50.840;4.346;2023-05-15T03:38:35;76.07;;;43.17;;
25409;SDS011;13339;50.840;4.346;2023-05-15T03:41:02;81.97;;;43.43;;
25409;SDS011;13339;50.840;4.346;2023-05-15T03:43:27;79.27;;;42.67;;
25409;SDS011;13339;50.840;4.346;2023-05-15T03:45:53;74.90;;;41.10;;
25409;SDS011;13339;50.840;4.346;2023-05-15T03:48:19;68.63;;;38.97;;
25409;SDS011;13339;50.840;4.346;2023-05-15T03:50:45;75.20;;;40.60;;
25409;SDS011;13339;50.840;4.346;2023-05-15T03:53:10;70.27;;;39.53;;
25409;SDS011;13339;50.840;4.346;2023-05-15T03:55:36;78.70;;;42.83;;
25409;SDS011;13339;50.840;4.346;2023-05-15T03:58:02;73.43;;;41.23;;
25409;SDS011;13339;50.840;4.346;2023-05-15T04:00:28;70.17;;;41.03;;
25409;SDS011;13339;50.840;4.346;2023-05-15T04:02:53;68.93;;;39.77;;
25409;SDS011;13339;50.840;4.346;2023-05-15T04:05:19;66.30;;;38.13;;
25409;SDS011;13339;50.840;4.346;2023-05-15T04:07:46;64.53;;;37.67;;
25409;SDS011;13339;50.840;4.346;2023-05-15T04:10:11;74.47;;;40.40;;
25409;SDS011;13339;50.840;4.346;2023-05-15T04:12:37;69.93;;;38.50;;
25409;SDS011;13339;50.840;4.346;2023-05-15T04:15:36;65.77;;;38.03;;
25409;SDS011;13339;50.840;4.346;2023-05-15T04:17:55;67.77;;;39.43;;
25409;SDS011;13339;50.840;4.346;2023-05-15T04:20:21;65.00;;;39.10;;
25409;SDS011;13339;50.840;4.346;2023-05-15T04:22:48;67.43;;;39.73;;
25409;SDS011;13339;50.840;4.346;2023-05-15T04:25:14;67.97;;;39.83;;
25409;SDS011;13339;50.840;4.346;2023-05-15T04:27:40;72.23;;;39.63;;
25409;SDS011;13339;50.840;4.346;2023-05-15T04:30:07;67.83;;;39.43;;
25409;SDS011;13339;50.840;4.346;2023-05-15T04:32:33;71.70;;;39.90;;
25409;SDS011;13339;50.840;4.346;2023-05-15T04:35:00;69.40;;;40.23;;
25409;SDS011;13339;50.840;4.346;2023-05-15T04:37:29;63.23;;;38.03;;
25409;SDS011;13339;50.840;4.346;2023-05-15T04:39:55;67.80;;;38.20;;
25409;SDS011;13339;50.840;4.346;2023-05-15T04:42:21;66.87;;;38.07;;
25409;SDS011;13339;50.840;4.346;2023-05-15T04:44:46;63.60;;;37.30;;
25409;SDS011;13339;50.840;4.346;2023-05-15T04:47:12;66.83;;;37.10;;
25409;SDS011;13339;50.840;4.346;2023-05-15T04:49:38;67.33;;;37.67;;
25409;SDS011;13339;50.840;4.346;2023-05-15T04:52:05;66.10;;;36.90;;
25409;SDS011;13339;50.840;4.346;2023-05-15T04:54:31;63.77;;;36.97;;
25409;SDS011;13339;50.840;4.346;2023-05-15T04:56:57;66.37;;;37.20;;
25409;SDS011;13339;50.840;4.346;2023-05-15T04:59:22;66.57;;;37.80;;
25409;SDS011;13339;50.840;4.346;2023-05-15T05:01:49;67.40;;;38.00;;
25409;SDS011;13339;50.840;4.346;2023-05-15T05:04:15;65.23;;;37.37;;
25409;SDS011;13339;50.840;4.346;2023-05-15T05:06:45;61.67;;;37.07;;
25409;SDS011;13339;50.840;4.346;2023-05-15T05:09:11;62.13;;;35.93;;
25409;SDS011;13339;50.840;4.346;2023-05-15T05:11:37;64.83;;;37.77;;
25409;SDS011;13339;50.840;4.346;2023-05-15T05:14:07;61.93;;;38.07;;
25409;SDS011;13339;50.840;4.346;2023-05-15T05:16:35;63.23;;;36.80;;
25409;SDS011;13339;50.840;4.346;2023-05-15T05:19:02;58.90;;;35.67;;
25409;SDS011;13339;50.840;4.346;2023-05-15T05:21:28;60.40;;;36.20;;
25409;SDS011;13339;50.840;4.346;2023-05-15T05:23:53;55.53;;;35.43;;
25409;SDS011;13339;50.840;4.346;2023-05-15T05:26:20;61.07;;;35.63;;
25409;SDS011;13339;50.840;4.346;2023-05-15T05:28:46;64.77;;;37.80;;
25409;SDS011;13339;50.840;4.346;2023-05-15T05:31:12;60.93;;;36.03;;
25409;SDS011;13339;50.840;4.346;2023-05-15T05:33:37;64.93;;;37.47;;
25409;SDS011;13339;50.840;4.346;2023-05-15T05:36:03;72.47;;;38.53;;
25409;SDS011;13339;50.840;4.346;2023-05-15T05:38:29;61.40;;;37.60;;
25409;SDS011;13339;50.840;4.346;2023-05-15T05:40:56;65.53;;;37.77;;
25409;SDS011;13339;50.840;4.346;2023-05-15T05:43:22;60.37;;;36.40;;
25409;SDS011;13339;50.840;4.346;2023-05-15T05:45:49;63.13;;;36.87;;
25409;SDS011;13339;50.840;4.346;2023-05-15T05:48:15;60.47;;;38.43;;
25409;SDS011;13339;50.840;4.346;2023-05-15T05:50:40;65.47;;;38.87;;
25409;SDS011;13339;50.840;4.346;2023-05-15T05:53:06;66.73;;;39.17;;
25409;SDS011;13339;50.840;4.346;2023-05-15T05:55:32;66.20;;;37.93;;
25409;SDS011;13339;50.840;4.346;2023-05-15T05:57:58;57.27;;;37.83;;
25409;SDS011;13339;50.840;4.346;2023-05-15T06:00:23;56.70;;;36.17;;
25409;SDS011;13339;50.840;4.346;2023-05-15T06:02:51;60.20;;;38.23;;
25409;SDS011;13339;50.840;4.346;2023-05-15T06:05:20;55.07;;;36.40;;
25409;SDS011;13339;50.840;4.346;2023-05-15T06:07:47;58.57;;;35.97;;
25409;SDS011;13339;50.840;4.346;2023-05-15T06:10:13;56.47;;;37.07;;
25409;SDS011;13339;50.840;4.346;2023-05-15T06:12:38;55.37;;;37.23;;
25409;SDS011;13339;50.840;4.346;2023-05-15T06:15:04;53.60;;;36.50;;
25409;SDS011;13339;50.840;4.346;2023-05-15T06:17:31;50.10;;;35.07;;
25409;SDS011;13339;50.840;4.346;2023-05-15T06:19:56;52.93;;;36.40;;
25409;SDS011;13339;50.840;4.346;2023-05-15T06:22:22;60.17;;;37.37;;
25409;SDS011;13339;50.840;4.346;2023-05-15T06:24:47;55.30;;;35.77;;
25409;SDS011;13339;50.840;4.346;2023-05-15T06:27:13;53.57;;;37.23;;
25409;SDS011;13339;50.840;4.346;2023-05-15T06:29:39;54.60;;;37.13;;
25409;SDS011;13339;50.840;4.346;2023-05-15T06:32:04;57.57;;;36.50;;
25409;SDS011;13339;50.840;4.346;2023-05-15T06:34:30;56.40;;;37.20;;
25409;SDS011;13339;50.840;4.346;2023-05-15T06:36:56;54.93;;;37.23;;
25409;SDS011;13339;50.840;4.346;2023-05-15T06:39:21;57.77;;;38.37;;
25409;SDS011;13339;50.840;4.346;2023-05-15T06:41:47;55.33;;;37.10;;
25409;SDS011;13339;50.840;4.346;2023-05-15T06:44:13;62.13;;;38.50;;
25409;SDS011;13339;50.840;4.346;2023-05-15T06:46:38;57.83;;;38.70;;
25409;SDS011;13339;50.840;4.346;2023-05-15T06:49:04;59.27;;;38.17;;
25409;SDS011;13339;50.840;4.346;2023-05-15T06:51:30;54.37;;;36.13;;
25409;SDS011;13339;50.840;4.346;2023-05-15T06:53:55;57.77;;;36.60;;
25409;SDS011;13339;50.840;4.346;2023-05-15T06:56:21;63.20;;;37.07;;
25409;SDS011;13339;50.840;4.346;2023-05-15T06:58:47;54.80;;;36.53;;
25409;SDS011;13339;50.840;4.346;2023-05-15T07:01:13;55.20;;;34.83;;
25409;SDS011;13339;50.840;4.346;2023-05-15T07:03:39;50.93;;;35.80;;
25409;SDS011;13339;50.840;4.346;2023-05-15T07:06:06;50.37;;;36.50;;
25409;SDS011;13339;50.840;4.346;2023-05-15T07:08:32;54.50;;;34.33;;
25409;SDS011;13339;50.840;4.346;2023-05-15T07:10:58;51.33;;;34.40;;
25409;SDS011;13339;50.840;4.346;2023-05-15T07:13:23;48.33;;;34.20;;
25409;SDS011;13339;50.840;4.346;2023-05-15T07:15:49;50.77;;;34.57;;
25409;SDS011;13339;50.840;4.346;2023-05-15T07:18:14;49.10;;;33.93;;
25409;SDS011;13339;50.840;4.346;2023-05-15T07:20:40;53.50;;;35.67;;
25409;SDS011;13339;50.840;4.346;2023-05-15T07:23:06;56.97;;;36.33;;
25409;SDS011;13339;50.840;4.346;2023-05-15T07:25:31;57.20;;;36.67;;
25409;SDS011;13339;50.840;4.346;2023-05-15T07:27:57;55.23;;;35.60;;
25409;SDS011;13339;50.840;4.346;2023-05-15T07:30:23;53.87;;;35.27;;
25409;SDS011;13339;50.840;4.346;2023-05-15T07:32:49;49.83;;;34.50;;
25409;SDS011;13339;50.840;4.346;2023-05-15T07:35:15;52.40;;;37.33;;
25409;SDS011;13339;50.840;4.346;2023-05-15T07:37:40;55.87;;;35.63;;
25409;SDS011;13339;50.840;4.346;2023-05-15T07:40:06;50.77;;;36.37;;
25409;SDS011;13339;50.840;4.346;2023-05-15T07:42:32;53.43;;;37.07;;
25409;SDS011;13339;50.840;4.346;2023-05-15T07:44:58;49.60;;;34.60;;
25409;SDS011;13339;50.840;4.346;2023-05-15T07:47:23;51.47;;;35.63;;
25409;SDS011;13339;50.840;4.346;2023-05-15T07:49:49;52.10;;;35.43;;
25409;SDS011;13339;50.840;4.346;2023-05-15T07:52:15;52.37;;;36.03;;
25409;SDS011;13339;50.840;4.346;2023-05-15T07:54:40;52.33;;;35.57;;
25409;SDS011;13339;50.840;4.346;2023-05-15T07:57:07;52.97;;;34.87;;
25409;SDS011;13339;50.840;4.346;2023-05-15T07:59:33;49.80;;;33.70;;
25409;SDS011;13339;50.840;4.346;2023-05-15T08:01:59;53.03;;;36.03;;
25409;SDS011;13339;50.840;4.346;2023-05-15T08:04:25;53.93;;;35.43;;
25409;SDS011;13339;50.840;4.346;2023-05-15T08:06:51;53.47;;;36.30;;
25409;SDS011;13339;50.840;4.346;2023-05-15T08:09:16;51.50;;;36.67;;
25409;SDS011;13339;50.840;4.346;2023-05-15T08:11:42;50.80;;;35.80;;
25409;SDS011;13339;50.840;4.346;2023-05-15T08:14:08;52.43;;;35.63;;
25409;SDS011;13339;50.840;4.346;2023-05-15T08:16:34;50.67;;;35.37;;
25409;SDS011;13339;50.840;4.346;2023-05-15T08:18:59;49.83;;;35.07;;
25409;SDS011;13339;50.840;4.346;2023-05-15T08:21:26;52.23;;;35.50;;
25409;SDS011;13339;50.840;4.346;2023-05-15T08:23:51;50.07;;;35.43;;
25409;SDS011;13339;50.840;4.346;2023-05-15T08:26:17;56.40;;;36.73;;
25409;SDS011;13339;50.840;4.346;2023-05-15T08:28:44;55.67;;;35.23;;
25409;SDS011;13339;50.840;4.346;2023-05-15T08:31:09;54.83;;;36.70;;
25409;SDS011;13339;50.840;4.346;2023-05-15T08:33:35;50.87;;;36.50;;
25409;SDS011;13339;50.840;4.346;2023-05-15T08:36:01;53.90;;;35.37;;
25409;SDS011;13339;50.840;4.346;2023-05-15T08:38:26;53.87;;;38.47;;
25409;SDS011;13339;50.840;4.346;2023-05-15T08:40:52;56.50;;;38.00;;
25409;SDS011;13339;50.840;4.346;2023-05-15T08:43:21;51.27;;;36.63;;
25409;SDS011;13339;50.840;4.346;2023-05-15T08:45:48;54.87;;;37.37;;
25409;SDS011;13339;50.840;4.346;2023-05-15T08:48:15;54.43;;;36.90;;
25409;SDS011;13339;50.840;4.346;2023-05-15T08:50:43;51.37;;;36.10;;
25409;SDS011;13339;50.840;4.346;2023-05-15T08:53:10;58.13;;;37.00;;
25409;SDS011;13339;50.840;4.346;2023-05-15T08:55:37;53.20;;;38.67;;
25409;SDS011;13339;50.840;4.346;2023-05-15T08:58:03;54.80;;;37.33;;
25409;SDS011;13339;50.840;4.346;2023-05-15T09:00:29;52.87;;;37.33;;
25409;SDS011;13339;50.840;4.346;2023-05-15T09:02:59;53.03;;;35.20;;
25409;SDS011;13339;50.840;4.346;2023-05-15T09:05:28;53.63;;;37.17;;
25409;SDS011;13339;50.840;4.346;2023-05-15T09:07:54;55.13;;;38.47;;
25409;SDS011;13339;50.840;4.346;2023-05-15T09:10:20;56.67;;;38.03;;
25409;SDS011;13339;50.840;4.346;2023-05-15T09:12:49;50.07;;;36.93;;
25409;SDS011;13339;50.840;4.346;2023-05-15T09:15:17;54.10;;;36.83;;
25409;SDS011;13339;50.840;4.346;2023-05-15T09:17:47;52.23;;;36.77;;
25409;SDS011;13339;50.840;4.346;2023-05-15T09:20:24;58.93;;;37.27;;
25409;SDS011;13339;50.840;4.346;2023-05-15T09:22:55;54.50;;;37.60;;
25409;SDS011;13339;50.840;4.346;2023-05-15T09:28:09;49.77;;;33.17;;
25409;SDS011;13339;50.840;4.346;2023-05-15T09:30:40;49.40;;;33.70;;
25409;SDS011;13339;50.840;4.346;2023-05-15T09:33:06;49.03;;;32.83;;
25409;SDS011;13339;50.840;4.346;2023-05-15T09:35:36;43.70;;;30.03;;
25409;SDS011;13339;50.840;4.346;2023-05-15T09:38:06;41.00;;;29.13;;
25409;SDS011;13339;50.840;4.346;2023-05-15T09:40:34;40.57;;;28.87;;
25409;SDS011;13339;50.840;4.346;2023-05-15T09:43:00;42.03;;;30.27;;
25409;SDS011;13339;50.840;4.346;2023-05-15T09:45:25;45.97;;;30.43;;
25409;SDS011;13339;50.840;4.346;2023-05-15T09:47:53;44.57;;;29.43;;
25409;SDS011;13339;50.840;4.346;2023-05-15T09:50:21;44.63;;;30.30;;
25409;SDS011;13339;50.840;4.346;2023-05-15T09:52:49;47.50;;;29.47;;
25409;SDS011;13339;50.840;4.346;2023-05-15T09:55:15;43.80;;;30.17;;
25409;SDS011;13339;50.840;4.346;2023-05-15T09:57:43;43.17;;;28.87;;
25409;SDS011;13339;50.840;4.346;2023-05-15T10:00:28;43.60;;;28.50;;
25409;SDS011;13339;50.840;4.346;2023-05-15T10:02:56;46.23;;;30.20;;
25409;SDS011;13339;50.840;4.346;2023-05-15T10:05:25;46.23;;;28.97;;
25409;SDS011;13339;50.840;4.346;2023-05-15T10:07:54;43.30;;;29.50;;
25409;SDS011;13339;50.840;4.346;2023-05-15T10:10:21;45.50;;;28.97;;
25409;SDS011;13339;50.840;4.346;2023-05-15T10:12:50;45.47;;;29.27;;
25409;SDS011;13339;50.840;4.346;2023-05-15T10:15:17;46.97;;;30.47;;
25409;SDS011;13339;50.840;4.346;2023-05-15T10:17:45;44.17;;;28.80;;
25409;SDS011;13339;50.840;4.346;2023-05-15T10:20:13;49.63;;;30.77;;
25409;SDS011;13339;50.840;4.346;2023-05-15T10:22:40;44.97;;;29.03;;
25409;SDS011;13339;50.840;4.346;2023-05-15T10:28:01;47.57;;;30.47;;
25409;SDS011;13339;50.840;4.346;2023-05-15T10:30:27;50.10;;;30.93;;
25409;SDS011;13339;50.840;4.346;2023-05-15T10:32:55;51.57;;;31.60;;
25409;SDS011;13339;50.840;4.346;2023-05-15T10:35:22;47.63;;;29.07;;
25409;SDS011;13339;50.840;4.346;2023-05-15T10:37:48;50.70;;;30.13;;
25409;SDS011;13339;50.840;4.346;2023-05-15T10:40:15;54.73;;;31.43;;
25409;SDS011;13339;50.840;4.346;2023-05-15T10:42:42;48.40;;;30.33;;
25409;SDS011;13339;50.840;4.346;2023-05-15T10:45:09;68.23;;;33.63;;
25409;SDS011;13339;50.840;4.346;2023-05-15T10:47:36;53.87;;;31.70;;
25409;SDS011;13339;50.840;4.346;2023-05-15T10:50:03;52.80;;;31.13;;
25409;SDS011;13339;50.840;4.346;2023-05-15T10:52:30;55.03;;;32.47;;
25409;SDS011;13339;50.840;4.346;2023-05-15T10:55:12;58.93;;;32.17;;
25409;SDS011;13339;50.840;4.346;2023-05-15T10:57:38;56.50;;;31.20;;
25409;SDS011;13339;50.840;4.346;2023-05-15T11:00:25;54.57;;;32.70;;
25409;SDS011;13339;50.840;4.346;2023-05-15T11:02:51;61.47;;;32.13;;
25409;SDS011;13339;50.840;4.346;2023-05-15T11:05:20;58.20;;;33.93;;
25409;SDS011;13339;50.840;4.346;2023-05-15T11:10:39;62.47;;;35.27;;
25409;SDS011;13339;50.840;4.346;2023-05-15T11:13:05;61.40;;;34.57;;
25409;SDS011;13339;50.840;4.346;2023-05-15T11:15:41;63.37;;;36.23;;
25409;SDS011;13339;50.840;4.346;2023-05-15T11:18:11;62.00;;;35.03;;
25409;SDS011;13339;50.840;4.346;2023-05-15T11:23:21;64.67;;;36.53;;
25409;SDS011;13339;50.840;4.346;2023-05-15T11:25:55;59.53;;;33.87;;
25409;SDS011;13339;50.840;4.346;2023-05-15T11:28:22;63.10;;;35.60;;
25409;SDS011;13339;50.840;4.346;2023-05-15T11:30:52;66.27;;;35.67;;
25409;SDS011;13339;50.840;4.346;2023-05-15T11:33:22;71.60;;;36.60;;
25409;SDS011;13339;50.840;4.346;2023-05-15T11:35:55;61.83;;;34.83;;
25409;SDS011;13339;50.840;4.346;2023-05-15T11:38:23;63.37;;;35.67;;
25409;SDS011;13339;50.840;4.346;2023-05-15T11:40:50;74.40;;;40.23;;
25409;SDS011;13339;50.840;4.346;2023-05-15T11:46:24;71.67;;;39.13;;
25409;SDS011;13339;50.840;4.346;2023-05-15T11:48:45;79.80;;;40.77;;
25409;SDS011;13339;50.840;4.346;2023-05-15T11:53:39;89.40;;;44.73;;
25409;SDS011;13339;50.840;4.346;2023-05-15T11:56:06;97.53;;;47.63;;
25409;SDS011;13339;50.840;4.346;2023-05-15T11:58:48;91.50;;;48.97;;
25409;SDS011;13339;50.840;4.346;2023-05-15T12:01:19;98.00;;;48.40;;
25409;SDS011;13339;50.840;4.346;2023-05-15T12:03:48;89.20;;;47.63;;
25409;SDS011;13339;50.840;4.346;2023-05-15T12:06:15;93.87;;;48.50;;
25409;SDS011;13339;50.840;4.346;2023-05-15T12:08:42;90.87;;;47.33;;
25409;SDS011;13339;50.840;4.346;2023-05-15T12:11:08;87.90;;;46.17;;
25409;SDS011;13339;50.840;4.346;2023-05-15T12:13:34;78.27;;;42.80;;
25409;SDS011;13339;50.840;4.346;2023-05-15T12:16:03;84.73;;;42.60;;
25409;SDS011;13339;50.840;4.346;2023-05-15T12:18:30;77.73;;;41.93;;
25409;SDS011;13339;50.840;4.346;2023-05-15T12:20:56;70.60;;;40.33;;
25409;SDS011;13339;50.840;4.346;2023-05-15T12:23:23;73.37;;;40.77;;
25409;SDS011;13339;50.840;4.346;2023-05-15T12:25:51;77.90;;;42.23;;
25409;SDS011;13339;50.840;4.346;2023-05-15T12:28:21;86.33;;;44.13;;
25409;SDS011;13339;50.840;4.346;2023-05-15T12:30:47;88.47;;;45.53;;
25409;SDS011;13339;50.840;4.346;2023-05-15T12:33:14;76.53;;;40.50;;
25409;SDS011;13339;50.840;4.346;2023-05-15T12:35:42;75.70;;;40.70;;
25409;SDS011;13339;50.840;4.346;2023-05-15T12:38:13;71.20;;;37.67;;
25409;SDS011;13339;50.840;4.346;2023-05-15T12:40:42;70.70;;;38.60;;
25409;SDS011;13339;50.840;4.346;2023-05-15T12:43:10;58.23;;;34.63;;
25409;SDS011;13339;50.840;4.346;2023-05-15T12:45:37;58.73;;;33.73;;
25409;SDS011;13339;50.840;4.346;2023-05-15T12:48:04;64.30;;;35.50;;
25409;SDS011;13339;50.840;4.346;2023-05-15T12:50:31;57.73;;;31.23;;
25409;SDS011;13339;50.840;4.346;2023-05-15T12:53:02;48.10;;;27.27;;
25409;SDS011;13339;50.840;4.346;2023-05-15T12:55:32;46.60;;;26.60;;
25409;SDS011;13339;50.840;4.346;2023-05-15T12:58:07;45.50;;;25.13;;
25409;SDS011;13339;50.840;4.346;2023-05-15T13:00:35;47.73;;;26.17;;
25409;SDS011;13339;50.840;4.346;2023-05-15T13:03:01;43.83;;;25.90;;
25409;SDS011;13339;50.840;4.346;2023-05-15T13:05:30;44.47;;;24.90;;
25409;SDS011;13339;50.840;4.346;2023-05-15T13:07:57;34.30;;;21.07;;
25409;SDS011;13339;50.840;4.346;2023-05-15T13:10:24;24.80;;;16.03;;
25409;SDS011;13339;50.840;4.346;2023-05-15T13:12:51;19.90;;;11.93;;
25409;SDS011;13339;50.840;4.346;2023-05-15T13:17:59;11.00;;;6.57;;
25409;SDS011;13339;50.840;4.346;2023-05-15T13:20:35;7.60;;;5.23;;
25409;SDS011;13339;50.840;4.346;2023-05-15T13:23:12;8.33;;;5.23;;
25409;SDS011;13339;50.840;4.346;2023-05-15T13:25:40;6.30;;;4.33;;
25409;SDS011;13339;50.840;4.346;2023-05-15T13:28:06;4.43;;;3.37;;
25409;SDS011;13339;50.840;4.346;2023-05-15T13:30:33;5.13;;;2.97;;
25409;SDS011;13339;50.840;4.346;2023-05-15T13:32:59;5.37;;;3.20;;
25409;SDS011;13339;50.840;4.346;2023-05-15T13:35:26;3.00;;;2.30;;
25409;SDS011;13339;50.840;4.346;2023-05-15T13:37:52;5.77;;;3.03;;
25409;SDS011;13339;50.840;4.346;2023-05-15T13:40:18;5.57;;;2.53;;
25409;SDS011;13339;50.840;4.346;2023-05-15T13:42:44;5.33;;;2.87;;
25409;SDS011;13339;50.840;4.346;2023-05-15T13:45:13;6.70;;;2.90;;
25409;SDS011;13339;50.840;4.346;2023-05-15T13:47:40;4.20;;;2.73;;
25409;SDS011;13339;50.840;4.346;2023-05-15T13:50:06;2.67;;;2.33;;
25409;SDS011;13339;50.840;4.346;2023-05-15T13:52:33;6.97;;;3.07;;
25409;SDS011;13339;50.840;4.346;2023-05-15T13:55:00;6.20;;;2.60;;
25409;SDS011;13339;50.840;4.346;2023-05-15T13:57:25;6.57;;;3.30;;
25409;SDS011;13339;50.840;4.346;2023-05-15T13:59:51;6.30;;;3.20;;
25409;SDS011;13339;50.840;4.346;2023-05-15T14:02:17;4.80;;;2.97;;
25409;SDS011;13339;50.840;4.346;2023-05-15T14:04:43;5.43;;;2.87;;
25409;SDS011;13339;50.840;4.346;2023-05-15T14:07:10;5.67;;;3.20;;
25409;SDS011;13339;50.840;4.346;2023-05-15T14:09:36;5.80;;;3.30;;
25409;SDS011;13339;50.840;4.346;2023-05-15T14:12:01;7.97;;;4.10;;
25409;SDS011;13339;50.840;4.346;2023-05-15T14:14:27;7.73;;;4.20;;
25409;SDS011;13339;50.840;4.346;2023-05-15T14:16:53;12.40;;;4.20;;
25409;SDS011;13339;50.840;4.346;2023-05-15T14:19:18;10.63;;;4.53;;
25409;SDS011;13339;50.840;4.346;2023-05-15T14:21:44;8.57;;;3.97;;
25409;SDS011;13339;50.840;4.346;2023-05-15T14:24:09;9.40;;;4.60;;
25409;SDS011;13339;50.840;4.346;2023-05-15T14:26:35;10.03;;;4.23;;
25409;SDS011;13339;50.840;4.346;2023-05-15T14:29:01;10.00;;;4.00;;
25409;SDS011;13339;50.840;4.346;2023-05-15T14:31:26;7.77;;;3.80;;
25409;SDS011;13339;50.840;4.346;2023-05-15T14:33:52;9.03;;;4.00;;
25409;SDS011;13339;50.840;4.346;2023-05-15T14:36:18;9.00;;;4.17;;
25409;SDS011;13339;50.840;4.346;2023-05-15T14:38:43;8.30;;;3.73;;
25409;SDS011;13339;50.840;4.346;2023-05-15T14:41:11;6.03;;;3.67;;
25409;SDS011;13339;50.840;4.346;2023-05-15T14:43:37;8.70;;;3.83;;
25409;SDS011;13339;50.840;4.346;2023-05-15T14:46:03;7.57;;;4.00;;
25409;SDS011;13339;50.840;4.346;2023-05-15T14:48:29;6.47;;;3.47;;
25409;SDS011;13339;50.840;4.346;2023-05-15T14:50:55;11.33;;;4.30;;
25409;SDS011;13339;50.840;4.346;2023-05-15T14:53:22;8.80;;;3.83;;
25409;SDS011;13339;50.840;4.346;2023-05-15T14:55:47;9.33;;;3.83;;
25409;SDS011;13339;50.840;4.346;2023-05-15T14:58:13;12.13;;;4.80;;
25409;SDS011;13339;50.840;4.346;2023-05-15T15:00:39;10.93;;;4.50;;